createdAt,value
2022-07-26T00:01:31.678Z,4.60
2022-07-26T00:04:00.108Z,6.82
2022-07-26T00:06:27.224Z,7.05
2022-07-26T00:08:54.252Z,7.35
2022-07-26T00:11:21.732Z,7.07
2022-07-26T00:13:48.526Z,5.97
2022-07-26T00:16:15.335Z,5.70
2022-07-26T00:18:42.228Z,9.45
2022-07-26T00:21:08.862Z,4.65
2022-07-26T00:23:35.713Z,4.65
2022-07-26T00:26:02.358Z,6.00
2022-07-26T00:28:28.959Z,4.07
2022-07-26T00:30:55.575Z,5.80
2022-07-26T00:33:22.180Z,4.53
2022-07-26T00:35:48.790Z,5.45
2022-07-26T00:38:15.429Z,5.03
2022-07-26T00:40:42.056Z,7.10
2022-07-26T00:43:08.710Z,5.35
2022-07-26T00:45:35.338Z,5.20
2022-07-26T00:48:02.259Z,5.15
2022-07-26T00:50:28.918Z,6.03
2022-07-26T00:52:55.616Z,5.85
2022-07-26T00:55:22.441Z,6.25
2022-07-26T00:57:49.124Z,8.48
2022-07-26T01:00:27.802Z,6.15
2022-07-26T01:02:55.509Z,9.13
2022-07-26T01:05:23.498Z,5.75
2022-07-26T01:07:50.377Z,5.90
2022-07-26T01:10:16.960Z,6.20
2022-07-26T01:12:44.322Z,8.38
2022-07-26T01:15:12.799Z,8.27
2022-07-26T01:17:39.705Z,6.03
2022-07-26T01:20:08.983Z,3.63
2022-07-26T01:22:35.653Z,5.93
2022-07-26T01:25:02.227Z,5.65
2022-07-26T01:27:33.824Z,9.75
2022-07-26T01:30:00.879Z,5.45
2022-07-26T01:32:27.481Z,6.28
2022-07-26T01:34:54.104Z,6.40
2022-07-26T01:37:20.757Z,7.47
2022-07-26T01:39:47.452Z,8.43
2022-07-26T01:42:13.964Z,7.78
2022-07-26T01:44:40.734Z,5.78
2022-07-26T01:47:07.763Z,7.03
2022-07-26T01:49:34.602Z,5.97
2022-07-26T01:52:01.308Z,5.68
2022-07-26T01:54:27.992Z,4.63
2022-07-26T01:56:54.530Z,5.20
2022-07-26T01:59:21.257Z,6.47
2022-07-26T02:01:47.938Z,8.77
2022-07-26T02:04:34.627Z,6.63
2022-07-26T02:07:03.329Z,6.65
2022-07-26T02:09:38.137Z,7.83
2022-07-26T02:12:07.231Z,6.63
2022-07-26T02:14:33.848Z,7.72
2022-07-26T02:17:00.839Z,6.38
2022-07-26T02:19:28.220Z,5.60
2022-07-26T02:21:55.188Z,8.05
2022-07-26T02:24:22.013Z,5.82
2022-07-26T02:26:48.673Z,5.15
2022-07-26T02:29:15.276Z,5.50
2022-07-26T02:31:41.917Z,5.45
2022-07-26T02:36:47.825Z,5.97
2022-07-26T02:39:15.041Z,7.53
2022-07-26T02:41:42.109Z,8.30
2022-07-26T02:44:09.996Z,7.13
2022-07-26T02:46:37.622Z,9.18
2022-07-26T02:49:04.935Z,9.13
2022-07-26T02:51:31.702Z,6.15
2022-07-26T02:53:58.381Z,7.45
2022-07-26T02:56:24.989Z,4.40
2022-07-26T02:58:51.656Z,6.25
2022-07-26T03:01:18.358Z,7.40
2022-07-26T03:03:50.386Z,7.35
2022-07-26T03:06:18.677Z,8.23
2022-07-26T03:08:45.699Z,7.05
2022-07-26T03:11:12.486Z,7.45
2022-07-26T03:13:39.314Z,10.20
2022-07-26T03:16:07.596Z,10.73
2022-07-26T03:18:34.251Z,6.20
2022-07-26T03:21:00.937Z,6.30
2022-07-26T03:23:27.581Z,7.55
2022-07-26T03:25:54.202Z,7.18
2022-07-26T03:28:20.800Z,7.13
2022-07-26T03:30:47.461Z,7.25
2022-07-26T03:33:14.029Z,7.93
2022-07-26T03:35:40.670Z,6.65
2022-07-26T03:38:07.205Z,7.90
2022-07-26T03:40:33.829Z,8.02
2022-07-26T03:43:00.556Z,9.43
2022-07-26T03:45:29.810Z,6.43
2022-07-26T03:47:56.358Z,14.07
2022-07-26T03:50:23.094Z,9.43
2022-07-26T03:55:41.499Z,7.55
2022-07-26T03:58:09.041Z,6.30
2022-07-26T04:00:35.640Z,10.20
2022-07-26T04:03:02.383Z,10.10
2022-07-26T04:05:29.050Z,6.13
2022-07-26T04:07:58.006Z,5.70
2022-07-26T04:10:25.858Z,5.60
2022-07-26T04:15:37.227Z,4.97
2022-07-26T04:18:03.972Z,8.35
2022-07-26T04:20:30.618Z,6.78
2022-07-26T04:22:57.277Z,4.28
2022-07-26T04:25:23.971Z,6.68
2022-07-26T04:27:50.571Z,5.55
2022-07-26T04:30:17.219Z,6.53
2022-07-26T04:32:46.430Z,7.65
2022-07-26T04:35:13.802Z,7.15
2022-07-26T04:37:42.675Z,9.50
2022-07-26T04:40:11.804Z,10.00
2022-07-26T04:42:39.712Z,8.07
2022-07-26T04:45:08.558Z,6.95
2022-07-26T04:47:35.503Z,7.38
2022-07-26T04:50:03.710Z,8.70
2022-07-26T04:52:30.338Z,6.78
2022-07-26T04:54:56.914Z,9.00
2022-07-26T04:57:23.647Z,6.63
2022-07-26T05:00:03.393Z,5.38
2022-07-26T05:02:36.990Z,13.25
2022-07-26T05:05:05.080Z,8.15
2022-07-26T05:07:49.422Z,6.15
2022-07-26T05:10:18.284Z,6.97
2022-07-26T05:12:48.787Z,10.48
2022-07-26T05:15:16.165Z,7.88
2022-07-26T05:17:43.574Z,6.57
2022-07-26T05:20:12.312Z,9.82
2022-07-26T05:22:42.125Z,5.55
2022-07-26T05:25:10.302Z,7.47
2022-07-26T05:27:37.089Z,10.30
2022-07-26T05:30:04.065Z,11.93
2022-07-26T05:32:30.693Z,6.85
2022-07-26T05:34:57.408Z,7.43
2022-07-26T05:37:24.020Z,5.32
2022-07-26T05:39:50.890Z,8.48
2022-07-26T05:42:17.468Z,12.93
2022-07-26T05:44:44.094Z,5.72
2022-07-26T05:47:11.224Z,8.88
2022-07-26T05:49:39.639Z,11.63
2022-07-26T05:52:07.451Z,9.48
2022-07-26T05:54:34.140Z,7.70
2022-07-26T05:57:00.884Z,9.63
2022-07-26T05:59:28.166Z,8.07
2022-07-26T06:01:58.117Z,8.02
2022-07-26T06:04:26.725Z,6.32
2022-07-26T06:06:55.003Z,9.32
2022-07-26T06:09:24.818Z,7.20
2022-07-26T06:11:51.871Z,7.50
2022-07-26T06:14:20.013Z,7.88
2022-07-26T06:16:47.261Z,5.43
2022-07-26T06:19:14.001Z,7.25
2022-07-26T06:21:42.092Z,6.45
2022-07-26T06:24:09.054Z,5.28
2022-07-26T06:26:35.951Z,6.80
2022-07-26T06:29:02.548Z,9.48
2022-07-26T06:31:29.590Z,6.93
2022-07-26T06:33:56.132Z,5.50
2022-07-26T06:36:26.098Z,6.75
2022-07-26T06:38:55.245Z,6.15
2022-07-26T06:41:22.136Z,6.28
2022-07-26T06:43:48.758Z,7.60
2022-07-26T06:46:16.429Z,9.40
2022-07-26T06:48:47.213Z,13.77
2022-07-26T06:51:14.516Z,6.22
2022-07-26T06:53:41.726Z,6.70
2022-07-26T06:56:08.587Z,8.73
2022-07-26T06:58:35.159Z,6.78
2022-07-26T07:01:01.914Z,8.63
2022-07-26T07:03:28.469Z,8.90
2022-07-26T07:05:55.110Z,9.93
2022-07-26T07:08:23.264Z,9.77
2022-07-26T07:10:50.854Z,8.40
2022-07-26T07:13:17.832Z,8.80
2022-07-26T07:15:45.139Z,15.25
2022-07-26T07:18:11.984Z,8.98
2022-07-26T07:20:40.461Z,7.57
2022-07-26T07:23:08.036Z,6.13
2022-07-26T07:25:34.636Z,9.90
2022-07-26T07:28:01.715Z,9.75
2022-07-26T07:30:28.836Z,9.85
2022-07-26T07:32:56.550Z,14.93
2022-07-26T07:35:23.522Z,10.60
2022-07-26T07:37:53.565Z,9.45
2022-07-26T07:40:21.598Z,8.80
2022-07-26T07:42:48.226Z,10.25
2022-07-26T07:47:26.946Z,10.52
2022-07-26T07:52:10.026Z,10.75
2022-07-26T07:54:36.817Z,10.68
2022-07-26T07:57:03.452Z,13.27
2022-07-26T07:59:30.779Z,12.40
2022-07-26T08:01:57.393Z,13.68
2022-07-26T08:04:24.152Z,11.27
2022-07-26T08:06:51.361Z,9.77
2022-07-26T08:09:19.200Z,14.50
2022-07-26T08:11:45.999Z,14.05
2022-07-26T08:14:18.449Z,12.25
2022-07-26T08:16:45.258Z,15.77
2022-07-26T08:19:12.394Z,12.80
2022-07-26T08:21:39.181Z,10.40
2022-07-26T08:24:06.928Z,17.75
2022-07-26T08:26:36.633Z,13.48
2022-07-26T08:29:03.636Z,12.27
2022-07-26T08:31:30.606Z,10.73
2022-07-26T08:33:57.534Z,12.85
2022-07-26T08:36:31.963Z,18.23
2022-07-26T08:39:00.941Z,17.55
2022-07-26T08:41:28.416Z,18.90
2022-07-26T08:43:55.058Z,16.25
2022-07-26T08:46:26.483Z,16.85
2022-07-26T08:48:55.570Z,21.10
2022-07-26T08:51:24.822Z,14.90
2022-07-26T08:54:04.061Z,20.42
2022-07-26T08:56:36.162Z,17.15
2022-07-26T08:59:18.860Z,17.48
2022-07-26T09:01:51.014Z,24.73
2022-07-26T09:04:31.026Z,26.70
2022-07-26T09:07:18.261Z,23.45
2022-07-26T09:10:00.670Z,18.20
2022-07-26T09:12:29.489Z,22.83
2022-07-26T09:14:57.153Z,25.70
2022-07-26T09:17:26.099Z,19.13
2022-07-26T09:20:09.747Z,21.75
2022-07-26T09:23:08.713Z,21.58
2022-07-26T09:25:37.995Z,20.75
2022-07-26T09:28:20.912Z,16.23
2022-07-26T09:31:22.745Z,17.02
2022-07-26T09:33:51.540Z,13.73
2022-07-26T09:36:18.969Z,20.23
2022-07-26T09:38:54.732Z,17.98
2022-07-26T09:41:30.306Z,16.65
2022-07-26T09:44:00.497Z,15.38
2022-07-26T09:46:29.614Z,13.43
2022-07-26T09:49:12.931Z,14.45
2022-07-26T09:51:45.512Z,14.63
2022-07-26T09:54:19.674Z,16.42
2022-07-26T09:56:51.804Z,26.08
2022-07-26T09:59:21.606Z,17.35
2022-07-26T10:01:50.752Z,15.90
2022-07-26T10:04:18.471Z,17.13
2022-07-26T10:06:45.813Z,20.73
2022-07-26T10:09:13.789Z,19.92
2022-07-26T10:11:50.793Z,20.23
2022-07-26T10:14:32.667Z,22.63
2022-07-26T10:17:35.238Z,19.17
2022-07-26T10:20:10.660Z,19.45
2022-07-26T10:22:47.873Z,24.33
2022-07-26T10:25:17.396Z,20.00
2022-07-26T10:27:48.944Z,20.95
2022-07-26T10:30:28.843Z,22.48
2022-07-26T10:33:10.190Z,20.05
2022-07-26T10:35:40.158Z,25.75
2022-07-26T10:38:10.811Z,22.50
2022-07-26T10:40:38.965Z,17.75
2022-07-26T10:43:40.640Z,18.23
2022-07-26T10:46:20.162Z,15.70
2022-07-26T10:49:03.631Z,15.15
2022-07-26T10:51:40.987Z,16.52
2022-07-26T10:54:12.158Z,14.68
2022-07-26T10:56:40.102Z,14.57
2022-07-26T10:59:07.024Z,16.90
2022-07-26T11:01:42.190Z,17.55
2022-07-26T11:04:19.432Z,19.30
2022-07-26T11:06:49.146Z,19.13
2022-07-26T11:09:17.375Z,17.15
2022-07-26T11:11:47.210Z,16.52
2022-07-26T11:14:17.060Z,22.38
2022-07-26T11:16:49.955Z,17.98
2022-07-26T11:19:22.169Z,18.70
2022-07-26T11:21:58.527Z,14.80
2022-07-26T11:24:26.804Z,14.85
2022-07-26T11:26:54.149Z,13.35
2022-07-26T11:29:39.195Z,14.70
2022-07-26T11:32:18.598Z,14.57
2022-07-26T11:34:46.456Z,13.55
2022-07-26T11:37:13.544Z,14.43
2022-07-26T11:39:40.319Z,18.83
2022-07-26T11:42:09.493Z,16.48
2022-07-26T11:44:36.557Z,14.25
2022-07-26T11:47:14.652Z,12.85
2022-07-26T11:50:00.207Z,10.48
2022-07-26T11:52:32.023Z,13.68
2022-07-26T11:54:59.491Z,18.05
2022-07-26T11:57:30.545Z,16.63
2022-07-26T11:59:58.879Z,12.38
2022-07-26T12:02:27.240Z,12.45
2022-07-26T12:05:21.180Z,12.85
2022-07-26T12:10:15.774Z,13.23
2022-07-26T12:12:42.650Z,14.82
2022-07-26T12:15:09.555Z,16.30
2022-07-26T12:17:36.200Z,12.73
2022-07-26T12:20:12.955Z,13.70
2022-07-26T12:22:39.897Z,10.57
2022-07-26T12:25:07.238Z,13.68
2022-07-26T12:27:34.112Z,14.00
2022-07-26T12:30:03.837Z,14.63
2022-07-26T12:32:52.016Z,14.05
2022-07-26T12:35:32.067Z,14.95
2022-07-26T12:37:59.408Z,18.75
2022-07-26T12:40:31.129Z,18.05
2022-07-26T12:45:34.829Z,19.98
2022-07-26T12:48:03.778Z,23.27
2022-07-26T12:50:35.069Z,12.88
2022-07-26T12:53:06.964Z,9.48
2022-07-26T12:58:01.047Z,7.88
2022-07-26T13:00:29.848Z,7.53
2022-07-26T13:02:57.287Z,10.20
2022-07-26T13:05:24.337Z,7.22
2022-07-26T13:07:55.480Z,6.93
2022-07-26T13:10:37.957Z,7.18
2022-07-26T13:13:05.088Z,6.40
2022-07-26T13:15:36.605Z,6.55
2022-07-26T13:18:08.281Z,8.82
2022-07-26T13:20:38.245Z,8.52
2022-07-26T13:23:05.232Z,7.18
2022-07-26T13:25:38.308Z,8.02
2022-07-26T13:28:07.450Z,7.18
2022-07-26T13:30:35.888Z,7.68
2022-07-26T13:33:02.738Z,12.45
2022-07-26T13:35:29.335Z,8.13
2022-07-26T13:37:55.966Z,9.27
2022-07-26T13:40:24.358Z,10.10
2022-07-26T13:42:54.674Z,9.40
2022-07-26T13:45:21.257Z,6.95
2022-07-26T13:47:47.959Z,8.20
2022-07-26T13:50:14.518Z,15.02
2022-07-26T13:52:41.215Z,9.88
2022-07-26T13:55:08.251Z,15.07
2022-07-26T13:57:49.614Z,11.88
2022-07-26T14:00:21.883Z,13.38
2022-07-26T14:02:48.572Z,11.27
2022-07-26T14:05:15.218Z,11.75
2022-07-26T14:07:42.507Z,7.95
2022-07-26T14:10:09.676Z,9.77
2022-07-26T14:12:38.081Z,7.70
2022-07-26T14:15:12.765Z,8.10
2022-07-26T14:17:42.087Z,9.63
2022-07-26T14:20:09.512Z,8.40
2022-07-26T14:22:36.202Z,10.27
2022-07-26T14:25:02.861Z,10.75
2022-07-26T14:27:29.561Z,10.48
2022-07-26T14:29:56.460Z,9.48
2022-07-26T14:32:23.263Z,10.23
2022-07-26T14:34:50.957Z,10.75
2022-07-26T14:37:43.473Z,11.73
2022-07-26T14:40:09.157Z,9.10
2022-07-26T14:42:35.757Z,16.70
2022-07-26T14:45:02.322Z,10.15
2022-07-26T14:47:29.025Z,11.95
2022-07-26T14:49:55.571Z,15.52
2022-07-26T14:52:22.348Z,14.35
2022-07-26T14:54:48.932Z,12.70
2022-07-26T14:57:15.552Z,10.38
2022-07-26T14:59:42.065Z,10.38
2022-07-26T15:02:11.303Z,12.93
2022-07-26T15:04:37.865Z,15.50
2022-07-26T15:07:04.508Z,12.95
2022-07-26T15:09:31.114Z,12.65
2022-07-26T15:11:58.204Z,13.30
2022-07-26T15:14:24.732Z,11.68
2022-07-26T15:16:52.032Z,12.95
2022-07-26T15:19:23.637Z,8.98
2022-07-26T15:21:54.761Z,12.45
2022-07-26T15:24:24.316Z,10.98
2022-07-26T15:26:51.173Z,18.17
2022-07-26T15:29:17.791Z,16.73
2022-07-26T15:31:44.676Z,13.43
2022-07-26T15:34:11.811Z,14.25
2022-07-26T15:36:38.800Z,14.93
2022-07-26T15:39:16.551Z,11.55
2022-07-26T15:41:45.323Z,16.05
2022-07-26T15:44:12.484Z,16.00
2022-07-26T15:46:39.745Z,14.82
2022-07-26T15:49:07.463Z,15.43
2022-07-26T15:51:34.497Z,15.65
2022-07-26T15:54:03.056Z,15.93
2022-07-26T15:56:29.902Z,15.73
2022-07-26T15:58:56.497Z,13.38
2022-07-26T16:03:43.855Z,19.23
2022-07-26T16:06:10.502Z,17.40
2022-07-26T16:08:52.765Z,23.20
2022-07-26T16:11:23.681Z,20.80
2022-07-26T16:13:50.293Z,15.70
2022-07-26T16:16:16.979Z,19.60
2022-07-26T16:18:43.902Z,15.93
2022-07-26T16:21:10.562Z,18.83
2022-07-26T16:23:37.525Z,17.92
2022-07-26T16:26:05.757Z,15.55
2022-07-26T16:28:32.525Z,19.65
2022-07-26T16:30:59.170Z,19.48
2022-07-26T16:33:25.817Z,23.08
2022-07-26T16:35:54.514Z,16.25
2022-07-26T16:40:35.789Z,14.40
2022-07-26T16:43:08.844Z,13.23
2022-07-26T16:45:38.548Z,12.35
2022-07-26T16:48:05.639Z,14.20
2022-07-26T16:50:32.311Z,15.35
2022-07-26T16:53:00.680Z,14.90
2022-07-26T16:55:27.458Z,17.15
2022-07-26T16:57:53.981Z,19.05
2022-07-26T17:00:22.177Z,17.17
2022-07-26T17:02:48.731Z,17.80
2022-07-26T17:05:15.495Z,16.10
2022-07-26T17:07:42.197Z,14.95
2022-07-26T17:10:09.974Z,14.50
2022-07-26T17:12:37.518Z,16.20
2022-07-26T17:15:05.262Z,16.42
2022-07-26T17:17:31.797Z,14.20
2022-07-26T17:19:58.492Z,14.38
2022-07-26T17:22:25.118Z,14.93
2022-07-26T17:24:52.182Z,13.50
2022-07-26T17:27:18.823Z,11.60
2022-07-26T17:29:45.791Z,12.55
2022-07-26T17:32:12.412Z,13.95
2022-07-26T17:34:40.060Z,13.52
2022-07-26T17:37:08.289Z,14.60
2022-07-26T17:39:51.728Z,14.70
2022-07-26T17:42:19.691Z,18.77
2022-07-26T17:44:46.288Z,13.70
2022-07-26T17:47:27.819Z,16.25
2022-07-26T17:49:55.783Z,18.67
2022-07-26T17:52:23.578Z,14.48
2022-07-26T17:54:50.766Z,20.08
2022-07-26T17:57:17.358Z,19.75
2022-07-26T17:59:43.902Z,15.15
2022-07-26T18:02:10.610Z,15.75
2022-07-26T18:04:37.330Z,16.10
2022-07-26T18:07:03.929Z,20.60
2022-07-26T18:09:30.517Z,19.40
2022-07-26T18:11:57.183Z,23.77
2022-07-26T18:14:23.864Z,21.67
2022-07-26T18:16:54.477Z,19.88
2022-07-26T18:19:21.834Z,23.58
2022-07-26T18:21:48.690Z,21.33
2022-07-26T18:24:17.253Z,24.20
2022-07-26T18:26:44.384Z,25.35
2022-07-26T18:29:11.491Z,20.95
2022-07-26T18:31:38.338Z,21.02
2022-07-26T18:34:06.718Z,23.92
2022-07-26T18:36:34.411Z,19.17
2022-07-26T18:39:01.177Z,20.23
2022-07-26T18:41:30.361Z,20.48
2022-07-26T18:43:59.463Z,16.45
2022-07-26T18:46:26.108Z,20.58
2022-07-26T18:48:53.048Z,23.77
2022-07-26T18:51:22.013Z,19.75
2022-07-26T18:53:53.663Z,27.95
2022-07-26T18:56:20.849Z,20.40
2022-07-26T18:58:47.470Z,23.20
2022-07-26T19:01:14.188Z,23.50
2022-07-26T19:03:40.930Z,28.10
2022-07-26T19:06:08.634Z,19.65
2022-07-26T19:08:35.521Z,21.90
2022-07-26T19:11:02.057Z,17.27
2022-07-26T19:13:28.986Z,15.95
2022-07-26T19:15:56.294Z,18.63
2022-07-26T19:18:23.254Z,17.98
2022-07-26T19:20:50.039Z,23.50
2022-07-26T19:23:16.681Z,20.02
2022-07-26T19:25:43.381Z,20.08
2022-07-26T19:28:09.958Z,17.08
2022-07-26T19:30:37.051Z,21.67
2022-07-26T19:33:04.472Z,16.80
2022-07-26T19:35:31.064Z,18.27
2022-07-26T19:37:57.721Z,21.25
2022-07-26T19:40:24.702Z,18.75
2022-07-26T19:42:51.569Z,20.00
2022-07-26T19:45:18.581Z,21.23
2022-07-26T19:47:45.472Z,18.52
2022-07-26T19:50:12.341Z,19.42
2022-07-26T19:52:40.660Z,21.85
2022-07-26T19:55:08.333Z,19.75
2022-07-26T19:57:35.178Z,20.58
2022-07-26T20:00:03.422Z,19.90
2022-07-26T20:02:40.723Z,19.02
2022-07-26T20:05:09.861Z,18.15
2022-07-26T20:07:36.529Z,18.13
2022-07-26T20:10:05.200Z,19.67
2022-07-26T20:12:34.322Z,20.60
2022-07-26T20:15:00.985Z,24.08
2022-07-26T20:17:28.563Z,21.42
2022-07-26T20:19:55.459Z,23.95
2022-07-26T20:22:23.379Z,29.33
2022-07-26T20:24:55.084Z,22.55
2022-07-26T20:27:23.419Z,26.30
2022-07-26T20:29:50.201Z,24.08
2022-07-26T20:32:17.509Z,28.38
2022-07-26T20:34:44.272Z,22.52
2022-07-26T20:37:10.994Z,26.35
2022-07-26T20:39:38.283Z,29.38
2022-07-26T20:42:06.692Z,26.40
2022-07-26T20:44:36.069Z,26.13
2022-07-26T20:47:06.081Z,31.60
2022-07-26T20:49:32.983Z,23.25
2022-07-26T20:52:00.170Z,22.38
2022-07-26T20:54:26.927Z,30.20
2022-07-26T20:56:53.734Z,26.90
2022-07-26T20:59:20.341Z,25.88
2022-07-26T21:01:47.110Z,29.75
2022-07-26T21:04:17.114Z,29.73
2022-07-26T21:06:43.710Z,27.42
2022-07-26T21:09:10.726Z,28.95
2022-07-26T21:14:03.832Z,20.27
2022-07-26T21:16:30.484Z,23.70
2022-07-26T21:18:57.077Z,24.98
2022-07-26T21:21:23.920Z,29.23
2022-07-26T21:23:50.844Z,26.65
2022-07-26T21:26:17.553Z,22.50
2022-07-26T21:28:44.478Z,23.98
2022-07-26T21:31:11.237Z,22.95
2022-07-26T21:33:37.933Z,29.00
2022-07-26T21:36:04.938Z,22.10
2022-07-26T21:38:33.266Z,26.90
2022-07-26T21:41:00.016Z,27.60
2022-07-26T21:43:26.761Z,21.40
2022-07-26T21:45:54.456Z,22.80
2022-07-26T21:48:22.892Z,24.63
2022-07-26T21:50:49.697Z,23.48
2022-07-26T21:53:16.354Z,19.35
2022-07-26T21:55:43.249Z,19.58
2022-07-26T21:58:10.376Z,22.55
2022-07-26T22:00:39.081Z,21.13
2022-07-26T22:03:06.841Z,21.23
2022-07-26T22:05:39.152Z,21.85
2022-07-26T22:08:10.957Z,18.48
2022-07-26T22:10:43.447Z,23.42
2022-07-26T22:13:11.662Z,26.88
2022-07-26T22:15:38.201Z,22.83
2022-07-26T22:18:05.235Z,22.17
2022-07-26T22:23:06.261Z,23.05
2022-07-26T22:25:34.105Z,23.25
2022-07-26T22:28:01.646Z,18.35
2022-07-26T22:30:29.324Z,22.60
2022-07-26T22:32:57.007Z,25.60
2022-07-26T22:35:34.892Z,23.55
2022-07-26T22:38:06.228Z,24.70
2022-07-26T22:40:33.101Z,25.88
2022-07-26T22:43:00.312Z,22.95
2022-07-26T22:45:28.805Z,25.52
2022-07-26T22:47:56.699Z,25.98
2022-07-26T22:50:24.901Z,19.50
2022-07-26T22:52:52.384Z,22.60
2022-07-26T22:55:19.460Z,26.17
2022-07-26T22:57:46.573Z,23.58
2022-07-26T23:00:16.137Z,24.52
2022-07-26T23:02:43.711Z,23.08
2022-07-26T23:05:11.642Z,24.05
2022-07-26T23:07:40.141Z,21.85
2022-07-26T23:10:10.993Z,22.83
2022-07-26T23:12:37.741Z,25.70
2022-07-26T23:15:06.696Z,25.42
2022-07-26T23:17:35.758Z,28.52
2022-07-26T23:20:06.759Z,29.73
2022-07-26T23:22:33.936Z,26.70
2022-07-26T23:25:00.546Z,25.20
2022-07-26T23:27:27.147Z,26.75
2022-07-26T23:29:53.753Z,19.30
2022-07-26T23:32:20.385Z,23.98
2022-07-26T23:34:47.006Z,21.60
2022-07-26T23:37:13.594Z,24.85
2022-07-26T23:39:40.133Z,21.35
2022-07-26T23:42:07.380Z,21.45
2022-07-26T23:44:34.210Z,24.65
2022-07-26T23:47:01.011Z,23.35
2022-07-26T23:49:27.981Z,22.77
2022-07-26T23:51:54.786Z,19.15
2022-07-26T23:54:21.578Z,22.00
2022-07-26T23:56:48.256Z,26.88
2022-07-26T23:59:15.536Z,16.35
